sensor_id;sensor_type;location;lat;lon;timestamp;temperature;humidity
4435;DHT22;46552;52.150;8.428;2024-03-02T00:01:37;7.90;99.90
4435;DHT22;46552;52.150;8.428;2024-03-02T00:04:05;7.90;99.90
4435;DHT22;46552;52.150;8.428;2024-03-02T00:06:33;7.80;99.90
4435;DHT22;46552;52.150;8.428;2024-03-02T00:09:03;7.80;99.90
4435;DHT22;46552;52.150;8.428;2024-03-02T00:11:30;7.80;99.90
4435;DHT22;46552;52.150;8.428;2024-03-02T00:13:58;7.80;99.90
4435;DHT22;46552;52.150;8.428;2024-03-02T00:16:30;7.80;99.90
4435;DHT22;46552;52.150;8.428;2024-03-02T00:19:01;7.80;99.90
4435;DHT22;46552;52.150;8.428;2024-03-02T00:21:30;7.80;99.90
4435;DHT22;46552;52.150;8.428;2024-03-02T00:23:58;7.80;99.90
4435;DHT22;46552;52.150;8.428;2024-03-02T00:26:27;7.80;99.90
4435;DHT22;46552;52.150;8.428;2024-03-02T00:28:56;7.80;99.90
4435;DHT22;46552;52.150;8.428;2024-03-02T00:31:23;7.70;99.90
4435;DHT22;46552;52.150;8.428;2024-03-02T00:33:52;7.70;99.90
4435;DHT22;46552;52.150;8.428;2024-03-02T00:36:24;7.70;99.90
4435;DHT22;46552;52.150;8.428;2024-03-02T00:38:53;7.70;99.90
4435;DHT22;46552;52.150;8.428;2024-03-02T00:41:22;7.70;99.90
4435;DHT22;46552;52.150;8.428;2024-03-02T00:44:01;7.70;99.90
4435;DHT22;46552;52.150;8.428;2024-03-02T00:46:30;7.70;99.90
4435;DHT22;46552;52.150;8.428;2024-03-02T00:49:00;7.70;99.90
4435;DHT22;46552;52.150;8.428;2024-03-02T00:51:30;7.60;99.90
4435;DHT22;46552;52.150;8.428;2024-03-02T00:53:59;7.60;99.90
4435;DHT22;46552;52.150;8.428;2024-03-02T00:56:27;7.60;99.90
4435;DHT22;46552;52.150;8.428;2024-03-02T00:58:55;7.60;99.90
4435;DHT22;46552;52.150;8.428;2024-03-02T01:01:23;7.60;99.90
4435;DHT22;46552;52.150;8.428;2024-03-02T01:03:50;7.50;99.90
4435;DHT22;46552;52.150;8.428;2024-03-02T01:06:17;7.50;99.90
4435;DHT22;46552;52.150;8.428;2024-03-02T01:08:44;7.50;99.90
4435;DHT22;46552;52.150;8.428;2024-03-02T01:11:13;7.40;99.90
4435;DHT22;46552;52.150;8.428;2024-03-02T01:13:40;7.50;99.90
4435;DHT22;46552;52.150;8.428;2024-03-02T01:16:08;7.40;99.90
4435;DHT22;46552;52.150;8.428;2024-03-02T01:18:36;7.40;99.90
4435;DHT22;46552;52.150;8.428;2024-03-02T01:21:04;7.40;99.90
4435;DHT22;46552;52.150;8.428;2024-03-02T01:23:31;7.40;99.90
4435;DHT22;46552;52.150;8.428;2024-03-02T01:25:58;7.40;99.90
4435;DHT22;46552;52.150;8.428;2024-03-02T01:28:25;7.40;99.90
4435;DHT22;46552;52.150;8.428;2024-03-02T01:30:53;7.40;99.90
4435;DHT22;46552;52.150;8.428;2024-03-02T01:33:21;7.40;99.90
4435;DHT22;46552;52.150;8.428;2024-03-02T01:35:49;7.40;99.90
4435;DHT22;46552;52.150;8.428;2024-03-02T01:38:16;7.40;99.90
4435;DHT22;46552;52.150;8.428;2024-03-02T01:40:43;7.40;99.90
4435;DHT22;46552;52.150;8.428;2024-03-02T01:43:11;7.40;99.90
4435;DHT22;46552;52.150;8.428;2024-03-02T01:45:38;7.40;99.90
4435;DHT22;46552;52.150;8.428;2024-03-02T01:48:07;7.30;99.90
4435;DHT22;46552;52.150;8.428;2024-03-02T01:50:35;7.30;99.90
4435;DHT22;46552;52.150;8.428;2024-03-02T01:53:04;7.30;99.90
4435;DHT22;46552;52.150;8.428;2024-03-02T01:55:31;7.30;99.90
4435;DHT22;46552;52.150;8.428;2024-03-02T01:58:00;7.20;99.90
4435;DHT22;46552;52.150;8.428;2024-03-02T02:00:28;7.20;99.90
4435;DHT22;46552;52.150;8.428;2024-03-02T02:02:55;7.20;99.90
4435;DHT22;46552;52.150;8.428;2024-03-02T02:05:23;7.20;99.90
4435;DHT22;46552;52.150;8.428;2024-03-02T02:07:51;7.10;99.90
4435;DHT22;46552;52.150;8.428;2024-03-02T02:10:20;7.10;99.90
4435;DHT22;46552;52.150;8.428;2024-03-02T02:12:48;7.10;99.90
4435;DHT22;46552;52.150;8.428;2024-03-02T02:15:25;7.00;99.90
4435;DHT22;46552;52.150;8.428;2024-03-02T02:17:53;7.00;99.90
4435;DHT22;46552;52.150;8.428;2024-03-02T02:20:20;7.00;99.90
4435;DHT22;46552;52.150;8.428;2024-03-02T02:22:57;7.00;99.90
4435;DHT22;46552;52.150;8.428;2024-03-02T02:25:24;7.00;99.90
4435;DHT22;46552;52.150;8.428;2024-03-02T02:27:51;7.10;99.90
4435;DHT22;46552;52.150;8.428;2024-03-02T02:30:19;7.10;99.90
4435;DHT22;46552;52.150;8.428;2024-03-02T02:32:47;7.10;99.90
4435;DHT22;46552;52.150;8.428;2024-03-02T02:35:15;7.10;99.90
4435;DHT22;46552;52.150;8.428;2024-03-02T02:37:43;7.00;99.90
4435;DHT22;46552;52.150;8.428;2024-03-02T02:40:13;7.00;99.90
4435;DHT22;46552;52.150;8.428;2024-03-02T02:42:40;7.00;99.90
4435;DHT22;46552;52.150;8.428;2024-03-02T02:45:07;7.00;99.90
4435;DHT22;46552;52.150;8.428;2024-03-02T02:47:34;7.00;99.90
4435;DHT22;46552;52.150;8.428;2024-03-02T02:50:06;6.90;99.90
4435;DHT22;46552;52.150;8.428;2024-03-02T02:52:34;6.90;99.90
4435;DHT22;46552;52.150;8.428;2024-03-02T02:55:03;6.80;99.90
4435;DHT22;46552;52.150;8.428;2024-03-02T02:57:32;6.80;99.90
4435;DHT22;46552;52.150;8.428;2024-03-02T03:00:05;6.80;99.90
4435;DHT22;46552;52.150;8.428;2024-03-02T03:02:36;6.80;99.90
4435;DHT22;46552;52.150;8.428;2024-03-02T03:05:05;6.90;99.90
4435;DHT22;46552;52.150;8.428;2024-03-02T03:07:33;6.80;99.90
4435;DHT22;46552;52.150;8.428;2024-03-02T03:10:00;6.90;99.90
4435;DHT22;46552;52.150;8.428;2024-03-02T03:12:32;6.90;99.90
4435;DHT22;46552;52.150;8.428;2024-03-02T03:14:59;6.90;99.90
4435;DHT22;46552;52.150;8.428;2024-03-02T03:17:26;6.80;99.90
4435;DHT22;46552;52.150;8.428;2024-03-02T03:19:54;6.80;99.90
4435;DHT22;46552;52.150;8.428;2024-03-02T03:22:22;6.80;99.90
4435;DHT22;46552;52.150;8.428;2024-03-02T03:24:49;6.80;99.90
4435;DHT22;46552;52.150;8.428;2024-03-02T03:27:17;6.80;99.90
4435;DHT22;46552;52.150;8.428;2024-03-02T03:29:46;6.90;99.90
4435;DHT22;46552;52.150;8.428;2024-03-02T03:32:13;6.80;99.90
4435;DHT22;46552;52.150;8.428;2024-03-02T03:34:42;6.80;99.90
4435;DHT22;46552;52.150;8.428;2024-03-02T03:37:09;6.80;99.90
4435;DHT22;46552;52.150;8.428;2024-03-02T03:39:37;6.80;99.90
4435;DHT22;46552;52.150;8.428;2024-03-02T03:42:04;6.80;99.90
4435;DHT22;46552;52.150;8.428;2024-03-02T03:44:32;6.80;99.90
4435;DHT22;46552;52.150;8.428;2024-03-02T03:47:00;6.80;99.90
4435;DHT22;46552;52.150;8.428;2024-03-02T03:49:28;6.70;99.90
4435;DHT22;46552;52.150;8.428;2024-03-02T03:51:55;6.70;99.90
4435;DHT22;46552;52.150;8.428;2024-03-02T03:54:22;6.70;99.90
4435;DHT22;46552;52.150;8.428;2024-03-02T03:56:49;6.70;99.90
4435;DHT22;46552;52.150;8.428;2024-03-02T03:59:16;6.70;99.90
4435;DHT22;46552;52.150;8.428;2024-03-02T04:01:44;6.70;99.90
4435;DHT22;46552;52.150;8.428;2024-03-02T04:04:12;6.70;99.90
4435;DHT22;46552;52.150;8.428;2024-03-02T04:06:40;6.70;99.90
4435;DHT22;46552;52.150;8.428;2024-03-02T04:09:08;6.70;99.90
4435;DHT22;46552;52.150;8.428;2024-03-02T04:11:35;6.70;99.90
4435;DHT22;46552;52.150;8.428;2024-03-02T04:14:02;6.70;99.90
4435;DHT22;46552;52.150;8.428;2024-03-02T04:16:31;6.60;99.90
4435;DHT22;46552;52.150;8.428;2024-03-02T04:18:59;6.60;99.90
4435;DHT22;46552;52.150;8.428;2024-03-02T04:21:26;6.60;99.90
4435;DHT22;46552;52.150;8.428;2024-03-02T04:23:53;6.60;99.90
4435;DHT22;46552;52.150;8.428;2024-03-02T04:26:23;6.60;99.90
4435;DHT22;46552;52.150;8.428;2024-03-02T04:28:51;6.60;99.90
4435;DHT22;46552;52.150;8.428;2024-03-02T04:31:18;6.60;99.90
4435;DHT22;46552;52.150;8.428;2024-03-02T04:33:45;6.60;99.90
4435;DHT22;46552;52.150;8.428;2024-03-02T04:36:13;6.60;99.90
4435;DHT22;46552;52.150;8.428;2024-03-02T04:38:42;6.60;99.90
4435;DHT22;46552;52.150;8.428;2024-03-02T04:41:10;6.60;99.90
4435;DHT22;46552;52.150;8.428;2024-03-02T04:43:37;6.60;99.90
4435;DHT22;46552;52.150;8.428;2024-03-02T04:46:05;6.60;99.90
4435;DHT22;46552;52.150;8.428;2024-03-02T04:48:33;6.60;99.90
4435;DHT22;46552;52.150;8.428;2024-03-02T04:51:00;6.60;99.90
4435;DHT22;46552;52.150;8.428;2024-03-02T04:53:27;6.60;99.90
4435;DHT22;46552;52.150;8.428;2024-03-02T04:55:56;6.60;99.90
4435;DHT22;46552;52.150;8.428;2024-03-02T04:58:52;6.60;99.90
4435;DHT22;46552;52.150;8.428;2024-03-02T05:01:19;6.60;99.90
4435;DHT22;46552;52.150;8.428;2024-03-02T05:03:46;6.60;99.90
4435;DHT22;46552;52.150;8.428;2024-03-02T05:06:14;6.60;99.90
4435;DHT22;46552;52.150;8.428;2024-03-02T05:08:41;6.50;99.90
4435;DHT22;46552;52.150;8.428;2024-03-02T05:11:11;6.50;99.90
4435;DHT22;46552;52.150;8.428;2024-03-02T05:13:58;6.50;99.90
4435;DHT22;46552;52.150;8.428;2024-03-02T05:16:25;6.50;99.90
4435;DHT22;46552;52.150;8.428;2024-03-02T05:18:52;6.50;99.90
4435;DHT22;46552;52.150;8.428;2024-03-02T05:21:19;6.50;99.90
4435;DHT22;46552;52.150;8.428;2024-03-02T05:23:47;6.50;99.90
4435;DHT22;46552;52.150;8.428;2024-03-02T05:26:15;6.40;99.90
4435;DHT22;46552;52.150;8.428;2024-03-02T05:28:42;6.40;99.90
4435;DHT22;46552;52.150;8.428;2024-03-02T05:31:10;6.40;99.90
4435;DHT22;46552;52.150;8.428;2024-03-02T05:33:38;6.40;99.90
4435;DHT22;46552;52.150;8.428;2024-03-02T05:36:05;6.40;99.90
4435;DHT22;46552;52.150;8.428;2024-03-02T05:38:34;6.30;99.90
4435;DHT22;46552;52.150;8.428;2024-03-02T05:41:01;6.30;99.90
4435;DHT22;46552;52.150;8.428;2024-03-02T05:43:30;6.30;99.90
4435;DHT22;46552;52.150;8.428;2024-03-02T05:45:57;6.30;99.90
4435;DHT22;46552;52.150;8.428;2024-03-02T05:48:24;6.30;99.90
4435;DHT22;46552;52.150;8.428;2024-03-02T05:50:51;6.20;99.90
4435;DHT22;46552;52.150;8.428;2024-03-02T05:53:18;6.20;99.90
4435;DHT22;46552;52.150;8.428;2024-03-02T05:55:45;6.20;99.90
4435;DHT22;46552;52.150;8.428;2024-03-02T05:58:19;6.20;99.90
4435;DHT22;46552;52.150;8.428;2024-03-02T06:00:58;6.20;99.90
4435;DHT22;46552;52.150;8.428;2024-03-02T06:03:25;6.10;99.90
4435;DHT22;46552;52.150;8.428;2024-03-02T06:05:54;6.10;99.90
4435;DHT22;46552;52.150;8.428;2024-03-02T06:08:21;6.10;99.90
4435;DHT22;46552;52.150;8.428;2024-03-02T06:10:48;6.10;99.90
4435;DHT22;46552;52.150;8.428;2024-03-02T06:13:16;6.10;99.90
4435;DHT22;46552;52.150;8.428;2024-03-02T06:15:43;6.10;99.90
4435;DHT22;46552;52.150;8.428;2024-03-02T06:18:11;6.10;99.90
4435;DHT22;46552;52.150;8.428;2024-03-02T06:20:38;6.10;99.90
4435;DHT22;46552;52.150;8.428;2024-03-02T06:23:06;6.10;99.90
4435;DHT22;46552;52.150;8.428;2024-03-02T06:25:33;6.10;99.90
4435;DHT22;46552;52.150;8.428;2024-03-02T06:28:00;6.10;99.90
4435;DHT22;46552;52.150;8.428;2024-03-02T06:30:27;6.20;99.90
4435;DHT22;46552;52.150;8.428;2024-03-02T06:32:56;6.20;99.90
4435;DHT22;46552;52.150;8.428;2024-03-02T06:35:24;6.20;99.90
4435;DHT22;46552;52.150;8.428;2024-03-02T06:37:52;6.20;99.90
4435;DHT22;46552;52.150;8.428;2024-03-02T06:40:19;6.20;99.90
4435;DHT22;46552;52.150;8.428;2024-03-02T06:42:47;6.20;99.90
4435;DHT22;46552;52.150;8.428;2024-03-02T06:45:14;6.30;99.90
4435;DHT22;46552;52.150;8.428;2024-03-02T06:47:42;6.30;99.90
4435;DHT22;46552;52.150;8.428;2024-03-02T06:50:09;6.40;99.90
4435;DHT22;46552;52.150;8.428;2024-03-02T06:52:38;6.40;99.90
4435;DHT22;46552;52.150;8.428;2024-03-02T06:55:06;6.50;99.90
4435;DHT22;46552;52.150;8.428;2024-03-02T06:57:33;6.50;99.90
4435;DHT22;46552;52.150;8.428;2024-03-02T07:00:01;6.50;99.90
4435;DHT22;46552;52.150;8.428;2024-03-02T07:02:30;6.50;99.90
4435;DHT22;46552;52.150;8.428;2024-03-02T07:04:59;6.60;99.90
4435;DHT22;46552;52.150;8.428;2024-03-02T07:07:26;6.60;99.90
4435;DHT22;46552;52.150;8.428;2024-03-02T07:09:55;6.60;99.90
4435;DHT22;46552;52.150;8.428;2024-03-02T07:12:22;6.70;99.90
4435;DHT22;46552;52.150;8.428;2024-03-02T07:14:49;6.70;99.90
4435;DHT22;46552;52.150;8.428;2024-03-02T07:17:33;6.80;99.90
4435;DHT22;46552;52.150;8.428;2024-03-02T07:20:03;6.80;99.90
4435;DHT22;46552;52.150;8.428;2024-03-02T07:22:30;6.80;99.90
4435;DHT22;46552;52.150;8.428;2024-03-02T07:25:00;6.80;99.90
4435;DHT22;46552;52.150;8.428;2024-03-02T07:27:28;6.80;99.90
4435;DHT22;46552;52.150;8.428;2024-03-02T07:29:55;6.90;99.90
4435;DHT22;46552;52.150;8.428;2024-03-02T07:32:22;6.90;99.90
4435;DHT22;46552;52.150;8.428;2024-03-02T07:34:49;6.90;99.90
4435;DHT22;46552;52.150;8.428;2024-03-02T07:37:17;7.00;99.90
4435;DHT22;46552;52.150;8.428;2024-03-02T07:39:46;7.00;99.90
4435;DHT22;46552;52.150;8.428;2024-03-02T07:42:15;7.20;99.90
4435;DHT22;46552;52.150;8.428;2024-03-02T07:44:43;7.20;99.90
4435;DHT22;46552;52.150;8.428;2024-03-02T07:47:10;7.30;99.90
4435;DHT22;46552;52.150;8.428;2024-03-02T07:49:38;7.50;99.90
4435;DHT22;46552;52.150;8.428;2024-03-02T07:52:05;7.70;99.90
4435;DHT22;46552;52.150;8.428;2024-03-02T07:54:33;8.00;99.90
4435;DHT22;46552;52.150;8.428;2024-03-02T07:57:00;8.30;99.90
4435;DHT22;46552;52.150;8.428;2024-03-02T07:59:29;8.70;99.90
4435;DHT22;46552;52.150;8.428;2024-03-02T08:01:56;9.20;99.90
4435;DHT22;46552;52.150;8.428;2024-03-02T08:04:23;9.90;99.90
4435;DHT22;46552;52.150;8.428;2024-03-02T08:06:52;10.50;99.90
4435;DHT22;46552;52.150;8.428;2024-03-02T08:09:20;11.50;99.90
4435;DHT22;46552;52.150;8.428;2024-03-02T08:11:47;12.70;99.90
4435;DHT22;46552;52.150;8.428;2024-03-02T08:14:14;13.80;99.90
4435;DHT22;46552;52.150;8.428;2024-03-02T08:16:44;14.80;99.90
4435;DHT22;46552;52.150;8.428;2024-03-02T08:19:12;15.80;99.90
4435;DHT22;46552;52.150;8.428;2024-03-02T08:21:39;16.70;99.80
4435;DHT22;46552;52.150;8.428;2024-03-02T08:24:07;17.70;98.60
4435;DHT22;46552;52.150;8.428;2024-03-02T08:26:34;18.60;97.20
4435;DHT22;46552;52.150;8.428;2024-03-02T08:29:01;19.40;96.00
4435;DHT22;46552;52.150;8.428;2024-03-02T08:31:29;20.10;94.80
4435;DHT22;46552;52.150;8.428;2024-03-02T08:33:58;20.60;93.50
4435;DHT22;46552;52.150;8.428;2024-03-02T08:36:25;21.00;92.00
4435;DHT22;46552;52.150;8.428;2024-03-02T08:38:52;21.40;91.70
4435;DHT22;46552;52.150;8.428;2024-03-02T08:41:20;21.90;90.70
4435;DHT22;46552;52.150;8.428;2024-03-02T08:43:47;22.40;89.50
4435;DHT22;46552;52.150;8.428;2024-03-02T08:46:14;22.70;87.90
4435;DHT22;46552;52.150;8.428;2024-03-02T08:48:41;23.10;85.70
4435;DHT22;46552;52.150;8.428;2024-03-02T08:51:10;23.60;83.30
4435;DHT22;46552;52.150;8.428;2024-03-02T08:53:38;23.70;79.40
4435;DHT22;46552;52.150;8.428;2024-03-02T08:56:05;23.40;78.00
4435;DHT22;46552;52.150;8.428;2024-03-02T08:58:33;23.30;76.90
4435;DHT22;46552;52.150;8.428;2024-03-02T09:01:00;22.80;75.30
4435;DHT22;46552;52.150;8.428;2024-03-02T09:03:27;23.00;74.50
4435;DHT22;46552;52.150;8.428;2024-03-02T09:05:54;23.20;73.80
4435;DHT22;46552;52.150;8.428;2024-03-02T09:08:23;23.30;72.00
4435;DHT22;46552;52.150;8.428;2024-03-02T09:10:51;23.10;71.10
4435;DHT22;46552;52.150;8.428;2024-03-02T09:13:18;22.90;68.60
4435;DHT22;46552;52.150;8.428;2024-03-02T09:15:46;23.20;70.80
4435;DHT22;46552;52.150;8.428;2024-03-02T09:18:13;23.10;69.20
4435;DHT22;46552;52.150;8.428;2024-03-02T09:20:40;23.00;68.70
4435;DHT22;46552;52.150;8.428;2024-03-02T09:23:08;23.20;67.40
4435;DHT22;46552;52.150;8.428;2024-03-02T09:25:36;23.20;67.00
4435;DHT22;46552;52.150;8.428;2024-03-02T09:28:04;22.70;66.60
4435;DHT22;46552;52.150;8.428;2024-03-02T09:30:31;21.80;67.90
4435;DHT22;46552;52.150;8.428;2024-03-02T09:32:58;21.00;69.10
4435;DHT22;46552;52.150;8.428;2024-03-02T09:35:25;20.50;69.90
4435;DHT22;46552;52.150;8.428;2024-03-02T09:37:52;20.30;70.80
4435;DHT22;46552;52.150;8.428;2024-03-02T09:40:22;20.10;71.60
4435;DHT22;46552;52.150;8.428;2024-03-02T09:42:51;20.30;71.70
4435;DHT22;46552;52.150;8.428;2024-03-02T09:45:23;20.20;71.80
4435;DHT22;46552;52.150;8.428;2024-03-02T09:47:52;20.20;72.20
4435;DHT22;46552;52.150;8.428;2024-03-02T09:50:19;20.20;72.70
4435;DHT22;46552;52.150;8.428;2024-03-02T09:52:49;21.30;72.10
4435;DHT22;46552;52.150;8.428;2024-03-02T09:55:16;22.00;69.50
4435;DHT22;46552;52.150;8.428;2024-03-02T09:57:45;22.30;68.60
4435;DHT22;46552;52.150;8.428;2024-03-02T10:00:16;22.00;68.30
4435;DHT22;46552;52.150;8.428;2024-03-02T10:02:43;21.80;68.40
4435;DHT22;46552;52.150;8.428;2024-03-02T10:05:24;22.30;68.50
4435;DHT22;46552;52.150;8.428;2024-03-02T10:07:59;22.20;66.70
4435;DHT22;46552;52.150;8.428;2024-03-02T10:10:35;21.80;67.00
4435;DHT22;46552;52.150;8.428;2024-03-02T10:13:06;20.90;68.50
4435;DHT22;46552;52.150;8.428;2024-03-02T10:15:36;20.40;69.60
4435;DHT22;46552;52.150;8.428;2024-03-02T10:18:04;19.60;70.30
4435;DHT22;46552;52.150;8.428;2024-03-02T10:20:31;19.00;71.70
4435;DHT22;46552;52.150;8.428;2024-03-02T10:23:10;18.80;72.90
4435;DHT22;46552;52.150;8.428;2024-03-02T10:25:38;19.40;72.00
4435;DHT22;46552;52.150;8.428;2024-03-02T10:28:05;19.60;72.10
4435;DHT22;46552;52.150;8.428;2024-03-02T10:30:35;20.50;71.10
4435;DHT22;46552;52.150;8.428;2024-03-02T10:33:04;21.70;69.50
4435;DHT22;46552;52.150;8.428;2024-03-02T10:35:33;22.40;68.10
4435;DHT22;46552;52.150;8.428;2024-03-02T10:38:04;22.70;66.70
4435;DHT22;46552;52.150;8.428;2024-03-02T10:40:32;23.30;66.10
4435;DHT22;46552;52.150;8.428;2024-03-02T10:43:01;23.60;64.20
4435;DHT22;46552;52.150;8.428;2024-03-02T10:45:31;23.80;63.80
4435;DHT22;46552;52.150;8.428;2024-03-02T10:48:01;24.10;63.40
4435;DHT22;46552;52.150;8.428;2024-03-02T10:50:29;24.30;62.80
4435;DHT22;46552;52.150;8.428;2024-03-02T10:52:57;24.40;61.50
4435;DHT22;46552;52.150;8.428;2024-03-02T10:55:24;24.20;61.80
4435;DHT22;46552;52.150;8.428;2024-03-02T10:57:52;24.60;61.10
4435;DHT22;46552;52.150;8.428;2024-03-02T11:00:20;24.90;60.80
4435;DHT22;46552;52.150;8.428;2024-03-02T11:02:55;24.90;60.40
4435;DHT22;46552;52.150;8.428;2024-03-02T11:05:28;25.30;59.90
4435;DHT22;46552;52.150;8.428;2024-03-02T11:08:00;25.40;58.80
4435;DHT22;46552;52.150;8.428;2024-03-02T11:10:33;25.60;58.10
4435;DHT22;46552;52.150;8.428;2024-03-02T11:13:05;25.40;57.20
4435;DHT22;46552;52.150;8.428;2024-03-02T11:15:34;25.40;57.90
4435;DHT22;46552;52.150;8.428;2024-03-02T11:18:04;25.50;57.90
4435;DHT22;46552;52.150;8.428;2024-03-02T11:20:36;25.60;57.10
4435;DHT22;46552;52.150;8.428;2024-03-02T11:23:06;25.70;56.90
4435;DHT22;46552;52.150;8.428;2024-03-02T11:25:34;25.90;57.00
4435;DHT22;46552;52.150;8.428;2024-03-02T11:28:05;26.40;56.40
4435;DHT22;46552;52.150;8.428;2024-03-02T11:30:50;26.60;55.40
4435;DHT22;46552;52.150;8.428;2024-03-02T11:33:25;26.40;54.40
4435;DHT22;46552;52.150;8.428;2024-03-02T11:35:56;26.30;54.30
4435;DHT22;46552;52.150;8.428;2024-03-02T11:38:29;25.80;55.00
4435;DHT22;46552;52.150;8.428;2024-03-02T11:40:57;25.70;55.20
4435;DHT22;46552;52.150;8.428;2024-03-02T11:43:26;26.00;54.60
4435;DHT22;46552;52.150;8.428;2024-03-02T11:45:59;25.80;55.20
4435;DHT22;46552;52.150;8.428;2024-03-02T11:48:26;26.10;54.90
4435;DHT22;46552;52.150;8.428;2024-03-02T11:50:59;26.10;55.30
4435;DHT22;46552;52.150;8.428;2024-03-02T11:53:28;26.10;53.80
4435;DHT22;46552;52.150;8.428;2024-03-02T11:55:56;26.20;53.80
4435;DHT22;46552;52.150;8.428;2024-03-02T11:58:27;25.70;54.50
4435;DHT22;46552;52.150;8.428;2024-03-02T12:00:55;24.60;55.50
4435;DHT22;46552;52.150;8.428;2024-03-02T12:03:24;23.90;56.10
4435;DHT22;46552;52.150;8.428;2024-03-02T12:05:53;22.70;57.50
4435;DHT22;46552;52.150;8.428;2024-03-02T12:08:22;22.30;59.00
4435;DHT22;46552;52.150;8.428;2024-03-02T12:10:58;21.60;60.10
4435;DHT22;46552;52.150;8.428;2024-03-02T12:13:26;21.40;61.20
4435;DHT22;46552;52.150;8.428;2024-03-02T12:15:54;21.00;61.40
4435;DHT22;46552;52.150;8.428;2024-03-02T12:18:23;20.70;62.50
4435;DHT22;46552;52.150;8.428;2024-03-02T12:20:51;20.30;63.40
4435;DHT22;46552;52.150;8.428;2024-03-02T12:23:23;19.90;64.00
4435;DHT22;46552;52.150;8.428;2024-03-02T12:25:51;19.50;64.70
4435;DHT22;46552;52.150;8.428;2024-03-02T12:28:20;19.80;65.10
4435;DHT22;46552;52.150;8.428;2024-03-02T12:30:47;19.80;65.20
4435;DHT22;46552;52.150;8.428;2024-03-02T12:33:15;19.90;65.60
4435;DHT22;46552;52.150;8.428;2024-03-02T12:35:43;19.60;65.70
4435;DHT22;46552;52.150;8.428;2024-03-02T12:38:10;19.50;66.30
4435;DHT22;46552;52.150;8.428;2024-03-02T12:40:39;19.50;66.10
4435;DHT22;46552;52.150;8.428;2024-03-02T12:43:06;19.50;66.70
4435;DHT22;46552;52.150;8.428;2024-03-02T12:45:34;19.60;66.70
4435;DHT22;46552;52.150;8.428;2024-03-02T12:48:01;19.30;66.90
4435;DHT22;46552;52.150;8.428;2024-03-02T12:50:29;19.40;66.70
4435;DHT22;46552;52.150;8.428;2024-03-02T12:52:58;19.40;66.80
4435;DHT22;46552;52.150;8.428;2024-03-02T12:55:26;19.30;67.10
4435;DHT22;46552;52.150;8.428;2024-03-02T12:57:56;19.10;67.20
4435;DHT22;46552;52.150;8.428;2024-03-02T13:00:24;19.10;67.90
4435;DHT22;46552;52.150;8.428;2024-03-02T13:02:52;18.80;68.70
4435;DHT22;46552;52.150;8.428;2024-03-02T13:05:19;18.40;69.00
4435;DHT22;46552;52.150;8.428;2024-03-02T13:07:47;18.30;69.70
4435;DHT22;46552;52.150;8.428;2024-03-02T13:10:15;18.10;70.00
4435;DHT22;46552;52.150;8.428;2024-03-02T13:12:43;18.00;71.30
4435;DHT22;46552;52.150;8.428;2024-03-02T13:15:12;18.20;71.30
4435;DHT22;46552;52.150;8.428;2024-03-02T13:17:39;18.20;70.90
4435;DHT22;46552;52.150;8.428;2024-03-02T13:20:07;18.00;71.60
4435;DHT22;46552;52.150;8.428;2024-03-02T13:22:36;17.70;71.90
4435;DHT22;46552;52.150;8.428;2024-03-02T13:25:04;17.60;72.60
4435;DHT22;46552;52.150;8.428;2024-03-02T13:27:32;17.50;72.80
4435;DHT22;46552;52.150;8.428;2024-03-02T13:30:00;17.30;73.50
4435;DHT22;46552;52.150;8.428;2024-03-02T13:32:30;17.30;73.50
4435;DHT22;46552;52.150;8.428;2024-03-02T13:34:58;17.30;74.20
4435;DHT22;46552;52.150;8.428;2024-03-02T13:37:26;17.30;74.20
4435;DHT22;46552;52.150;8.428;2024-03-02T13:39:53;17.20;74.10
4435;DHT22;46552;52.150;8.428;2024-03-02T13:42:21;17.30;74.30
4435;DHT22;46552;52.150;8.428;2024-03-02T13:44:48;17.30;74.70
4435;DHT22;46552;52.150;8.428;2024-03-02T13:47:17;17.20;74.60
4435;DHT22;46552;52.150;8.428;2024-03-02T13:49:45;17.40;74.30
4435;DHT22;46552;52.150;8.428;2024-03-02T13:52:14;17.50;75.20
4435;DHT22;46552;52.150;8.428;2024-03-02T13:54:43;17.70;74.90
4435;DHT22;46552;52.150;8.428;2024-03-02T13:57:11;17.70;74.20
4435;DHT22;46552;52.150;8.428;2024-03-02T13:59:40;17.70;74.10
4435;DHT22;46552;52.150;8.428;2024-03-02T14:02:08;17.70;74.00
4435;DHT22;46552;52.150;8.428;2024-03-02T14:04:35;17.70;74.20
4435;DHT22;46552;52.150;8.428;2024-03-02T14:07:05;17.60;73.90
4435;DHT22;46552;52.150;8.428;2024-03-02T14:09:33;17.80;74.00
4435;DHT22;46552;52.150;8.428;2024-03-02T14:12:00;17.70;73.70
4435;DHT22;46552;52.150;8.428;2024-03-02T14:14:28;17.50;74.00
4435;DHT22;46552;52.150;8.428;2024-03-02T14:16:55;17.20;74.20
4435;DHT22;46552;52.150;8.428;2024-03-02T14:19:26;17.20;74.50
4435;DHT22;46552;52.150;8.428;2024-03-02T14:21:53;17.40;75.10
4435;DHT22;46552;52.150;8.428;2024-03-02T14:24:22;17.30;75.10
4435;DHT22;46552;52.150;8.428;2024-03-02T14:26:51;17.30;75.30
4435;DHT22;46552;52.150;8.428;2024-03-02T14:29:18;17.20;75.60
4435;DHT22;46552;52.150;8.428;2024-03-02T14:31:47;16.90;75.90
4435;DHT22;46552;52.150;8.428;2024-03-02T14:34:15;16.90;76.40
4435;DHT22;46552;52.150;8.428;2024-03-02T14:36:43;16.90;76.70
4435;DHT22;46552;52.150;8.428;2024-03-02T14:39:10;16.90;77.00
4435;DHT22;46552;52.150;8.428;2024-03-02T14:41:39;16.90;77.00
4435;DHT22;46552;52.150;8.428;2024-03-02T14:44:06;16.80;76.60
4435;DHT22;46552;52.150;8.428;2024-03-02T14:46:34;16.70;77.10
4435;DHT22;46552;52.150;8.428;2024-03-02T14:49:01;16.70;77.30
4435;DHT22;46552;52.150;8.428;2024-03-02T14:51:28;16.70;77.40
4435;DHT22;46552;52.150;8.428;2024-03-02T14:53:56;16.70;78.00
4435;DHT22;46552;52.150;8.428;2024-03-02T14:56:23;16.80;77.90
4435;DHT22;46552;52.150;8.428;2024-03-02T14:58:53;16.90;77.70
4435;DHT22;46552;52.150;8.428;2024-03-02T15:01:20;16.90;77.60
4435;DHT22;46552;52.150;8.428;2024-03-02T15:03:48;16.90;77.50
4435;DHT22;46552;52.150;8.428;2024-03-02T15:06:15;16.80;77.00
4435;DHT22;46552;52.150;8.428;2024-03-02T15:08:43;16.70;77.70
4435;DHT22;46552;52.150;8.428;2024-03-02T15:11:12;16.70;77.60
4435;DHT22;46552;52.150;8.428;2024-03-02T15:13:40;16.70;77.70
4435;DHT22;46552;52.150;8.428;2024-03-02T15:16:08;16.60;78.10
4435;DHT22;46552;52.150;8.428;2024-03-02T15:18:36;16.50;78.50
4435;DHT22;46552;52.150;8.428;2024-03-02T15:21:04;16.50;79.10
4435;DHT22;46552;52.150;8.428;2024-03-02T15:23:31;16.20;78.90
4435;DHT22;46552;52.150;8.428;2024-03-02T15:25:59;16.30;79.30
4435;DHT22;46552;52.150;8.428;2024-03-02T15:28:27;16.30;79.40
4435;DHT22;46552;52.150;8.428;2024-03-02T15:30:55;16.20;79.40
4435;DHT22;46552;52.150;8.428;2024-03-02T15:33:23;16.20;79.40
4435;DHT22;46552;52.150;8.428;2024-03-02T15:35:57;16.10;79.40
4435;DHT22;46552;52.150;8.428;2024-03-02T15:38:25;16.00;79.20
4435;DHT22;46552;52.150;8.428;2024-03-02T15:40:52;15.90;79.60
4435;DHT22;46552;52.150;8.428;2024-03-02T15:43:19;15.90;79.80
4435;DHT22;46552;52.150;8.428;2024-03-02T15:45:47;15.80;80.10
4435;DHT22;46552;52.150;8.428;2024-03-02T15:48:15;15.70;80.30
4435;DHT22;46552;52.150;8.428;2024-03-02T15:50:44;15.70;80.50
4435;DHT22;46552;52.150;8.428;2024-03-02T15:53:11;15.60;80.30
4435;DHT22;46552;52.150;8.428;2024-03-02T15:55:39;15.40;80.50
4435;DHT22;46552;52.150;8.428;2024-03-02T15:58:07;15.30;80.70
4435;DHT22;46552;52.150;8.428;2024-03-02T16:00:34;15.30;81.00
4435;DHT22;46552;52.150;8.428;2024-03-02T16:03:02;15.20;81.10